sensor_id;sensor_type;location;lat;lon;timestamp;temperature;humidity
68251;DHT22;55066;51.560;4.642;2023-05-07T00:00:01;14.06;99.99
68251;DHT22;55066;51.560;4.642;2023-05-07T00:02:26;14.02;99.99
68251;DHT22;55066;51.560;4.642;2023-05-07T00:04:52;13.98;99.99
68251;DHT22;55066;51.560;4.642;2023-05-07T00:07:17;13.88;99.99
68251;DHT22;55066;51.560;4.642;2023-05-07T00:09:43;13.82;99.99
68251;DHT22;55066;51.560;4.642;2023-05-07T00:12:09;13.86;99.99
68251;DHT22;55066;51.560;4.642;2023-05-07T00:14:34;14.00;99.99
68251;DHT22;55066;51.560;4.642;2023-05-07T00:17:00;13.95;99.99
68251;DHT22;55066;51.560;4.642;2023-05-07T00:19:25;13.91;99.99
68251;DHT22;55066;51.560;4.642;2023-05-07T00:21:51;13.84;99.97
68251;DHT22;55066;51.560;4.642;2023-05-07T00:24:18;13.82;96.23
68251;DHT22;55066;51.560;4.642;2023-05-07T00:26:44;13.88;98.43
68251;DHT22;55066;51.560;4.642;2023-05-07T00:29:09;14.00;99.99
68251;DHT22;55066;51.560;4.642;2023-05-07T00:31:34;13.86;99.99
68251;DHT22;55066;51.560;4.642;2023-05-07T00:34:00;13.74;99.99
68251;DHT22;55066;51.560;4.642;2023-05-07T00:36:25;13.79;98.66
68251;DHT22;55066;51.560;4.642;2023-05-07T00:38:54;13.86;96.72
68251;DHT22;55066;51.560;4.642;2023-05-07T00:41:20;13.95;97.94
68251;DHT22;55066;51.560;4.642;2023-05-07T00:43:46;14.05;99.99
68251;DHT22;55066;51.560;4.642;2023-05-07T00:46:13;14.00;99.99
68251;DHT22;55066;51.560;4.642;2023-05-07T00:48:39;13.79;98.76
68251;DHT22;55066;51.560;4.642;2023-05-07T00:51:05;13.91;99.99
68251;DHT22;55066;51.560;4.642;2023-05-07T00:53:31;13.86;99.99
68251;DHT22;55066;51.560;4.642;2023-05-07T00:55:57;13.65;99.05
68251;DHT22;55066;51.560;4.642;2023-05-07T00:58:23;13.75;96.58
68251;DHT22;55066;51.560;4.642;2023-05-07T01:00:50;13.85;99.99
68251;DHT22;55066;51.560;4.642;2023-05-07T01:03:18;13.84;99.99
68251;DHT22;55066;51.560;4.642;2023-05-07T01:05:44;13.71;99.99
68251;DHT22;55066;51.560;4.642;2023-05-07T01:08:12;13.70;99.99
68251;DHT22;55066;51.560;4.642;2023-05-07T01:10:39;13.82;99.99
68251;DHT22;55066;51.560;4.642;2023-05-07T01:13:12;13.75;99.99
68251;DHT22;55066;51.560;4.642;2023-05-07T01:15:38;13.88;99.99
68251;DHT22;55066;51.560;4.642;2023-05-07T01:18:04;13.86;99.99
68251;DHT22;55066;51.560;4.642;2023-05-07T01:20:35;13.91;99.99
68251;DHT22;55066;51.560;4.642;2023-05-07T01:23:03;13.81;99.99
68251;DHT22;55066;51.560;4.642;2023-05-07T01:25:29;13.75;99.99
68251;DHT22;55066;51.560;4.642;2023-05-07T01:27:58;13.70;99.99
68251;DHT22;55066;51.560;4.642;2023-05-07T01:30:30;13.54;99.99
68251;DHT22;55066;51.560;4.642;2023-05-07T01:33:06;13.57;99.99
68251;DHT22;55066;51.560;4.642;2023-05-07T01:35:37;13.50;99.99
68251;DHT22;55066;51.560;4.642;2023-05-07T01:38:03;13.46;99.99
68251;DHT22;55066;51.560;4.642;2023-05-07T01:40:31;13.44;99.99
68251;DHT22;55066;51.560;4.642;2023-05-07T01:42:58;13.35;99.99
68251;DHT22;55066;51.560;4.642;2023-05-07T01:45:24;13.27;99.99
68251;DHT22;55066;51.560;4.642;2023-05-07T01:47:51;13.54;99.99
68251;DHT22;55066;51.560;4.642;2023-05-07T01:50:19;13.67;99.99
68251;DHT22;55066;51.560;4.642;2023-05-07T01:52:46;13.64;99.99
68251;DHT22;55066;51.560;4.642;2023-05-07T01:55:12;13.67;99.99
68251;DHT22;55066;51.560;4.642;2023-05-07T01:57:37;13.57;99.99
68251;DHT22;55066;51.560;4.642;2023-05-07T02:00:04;13.56;99.99
68251;DHT22;55066;51.560;4.642;2023-05-07T02:02:51;13.67;99.99
68251;DHT22;55066;51.560;4.642;2023-05-07T02:05:33;13.57;99.99
68251;DHT22;55066;51.560;4.642;2023-05-07T02:08:05;13.50;99.99
68251;DHT22;55066;51.560;4.642;2023-05-07T02:10:31;13.58;99.99
68251;DHT22;55066;51.560;4.642;2023-05-07T02:12:59;13.56;98.75
68251;DHT22;55066;51.560;4.642;2023-05-07T02:15:26;13.71;99.99
68251;DHT22;55066;51.560;4.642;2023-05-07T02:18:04;13.64;99.99
68251;DHT22;55066;51.560;4.642;2023-05-07T02:20:30;13.54;99.99
68251;DHT22;55066;51.560;4.642;2023-05-07T02:22:56;13.58;99.99
68251;DHT22;55066;51.560;4.642;2023-05-07T02:25:23;13.53;96.95
68251;DHT22;55066;51.560;4.642;2023-05-07T02:27:48;13.51;97.56
68251;DHT22;55066;51.560;4.642;2023-05-07T02:30:16;13.58;99.99
68251;DHT22;55066;51.560;4.642;2023-05-07T02:32:42;13.57;99.99
68251;DHT22;55066;51.560;4.642;2023-05-07T02:35:09;13.44;99.99
68251;DHT22;55066;51.560;4.642;2023-05-07T02:37:34;13.30;99.99
68251;DHT22;55066;51.560;4.642;2023-05-07T02:40:00;13.23;99.99
68251;DHT22;55066;51.560;4.642;2023-05-07T02:42:25;13.30;99.99
68251;DHT22;55066;51.560;4.642;2023-05-07T02:44:52;13.44;99.99
68251;DHT22;55066;51.560;4.642;2023-05-07T02:47:18;13.32;99.99
68251;DHT22;55066;51.560;4.642;2023-05-07T02:49:44;13.29;98.25
68251;DHT22;55066;51.560;4.642;2023-05-07T02:52:10;13.37;99.99
68251;DHT22;55066;51.560;4.642;2023-05-07T02:54:35;13.43;99.99
68251;DHT22;55066;51.560;4.642;2023-05-07T02:57:04;13.51;99.99
68251;DHT22;55066;51.560;4.642;2023-05-07T02:59:30;13.32;99.99
68251;DHT22;55066;51.560;4.642;2023-05-07T03:01:56;13.32;99.99
68251;DHT22;55066;51.560;4.642;2023-05-07T03:04:22;13.29;99.99
68251;DHT22;55066;51.560;4.642;2023-05-07T03:06:49;13.43;99.99
68251;DHT22;55066;51.560;4.642;2023-05-07T03:09:14;13.48;99.99
68251;DHT22;55066;51.560;4.642;2023-05-07T03:11:40;13.56;99.99
68251;DHT22;55066;51.560;4.642;2023-05-07T03:14:05;13.51;99.99
68251;DHT22;55066;51.560;4.642;2023-05-07T03:16:31;13.47;99.99
68251;DHT22;55066;51.560;4.642;2023-05-07T03:18:56;13.63;99.99
68251;DHT22;55066;51.560;4.642;2023-05-07T03:21:22;13.63;99.99
68251;DHT22;55066;51.560;4.642;2023-05-07T03:23:48;13.56;99.99
68251;DHT22;55066;51.560;4.642;2023-05-07T03:26:14;13.57;99.99
68251;DHT22;55066;51.560;4.642;2023-05-07T03:28:42;13.63;99.99
68251;DHT22;55066;51.560;4.642;2023-05-07T03:31:11;13.57;99.99
68251;DHT22;55066;51.560;4.642;2023-05-07T03:33:50;13.57;99.99
68251;DHT22;55066;51.560;4.642;2023-05-07T03:36:16;13.54;99.99
68251;DHT22;55066;51.560;4.642;2023-05-07T03:38:41;13.70;99.99
68251;DHT22;55066;51.560;4.642;2023-05-07T03:41:07;13.56;99.61
68251;DHT22;55066;51.560;4.642;2023-05-07T03:43:32;13.68;99.99
68251;DHT22;55066;51.560;4.642;2023-05-07T03:46:04;13.75;99.99
68251;DHT22;55066;51.560;4.642;2023-05-07T03:48:29;13.75;99.99
68251;DHT22;55066;51.560;4.642;2023-05-07T03:50:57;13.73;99.99
68251;DHT22;55066;51.560;4.642;2023-05-07T03:53:28;13.65;99.48
68251;DHT22;55066;51.560;4.642;2023-05-07T03:55:53;13.68;96.93
68251;DHT22;55066;51.560;4.642;2023-05-07T03:58:20;13.75;99.99
68251;DHT22;55066;51.560;4.642;2023-05-07T04:00:45;13.65;99.99
68251;DHT22;55066;51.560;4.642;2023-05-07T04:03:18;13.56;99.99
68251;DHT22;55066;51.560;4.642;2023-05-07T04:05:44;13.60;99.99
68251;DHT22;55066;51.560;4.642;2023-05-07T04:08:10;13.58;99.99
68251;DHT22;55066;51.560;4.642;2023-05-07T04:10:38;13.61;99.99
68251;DHT22;55066;51.560;4.642;2023-05-07T04:13:08;13.70;99.99
68251;DHT22;55066;51.560;4.642;2023-05-07T04:15:36;13.58;99.99
68251;DHT22;55066;51.560;4.642;2023-05-07T04:18:05;13.61;99.99
68251;DHT22;55066;51.560;4.642;2023-05-07T04:20:34;13.60;99.99
68251;DHT22;55066;51.560;4.642;2023-05-07T04:23:02;13.73;99.99
68251;DHT22;55066;51.560;4.642;2023-05-07T04:25:28;13.61;99.99
68251;DHT22;55066;51.560;4.642;2023-05-07T04:28:00;13.65;99.99
68251;DHT22;55066;51.560;4.642;2023-05-07T04:30:27;13.75;99.99
68251;DHT22;55066;51.560;4.642;2023-05-07T04:32:52;13.68;99.99
68251;DHT22;55066;51.560;4.642;2023-05-07T04:35:19;13.70;99.99
68251;DHT22;55066;51.560;4.642;2023-05-07T04:37:44;13.73;99.99
68251;DHT22;55066;51.560;4.642;2023-05-07T04:40:10;13.58;99.99
68251;DHT22;55066;51.560;4.642;2023-05-07T04:42:35;13.74;99.99
68251;DHT22;55066;51.560;4.642;2023-05-07T04:45:02;13.81;99.99
68251;DHT22;55066;51.560;4.642;2023-05-07T04:47:31;13.88;99.99
68251;DHT22;55066;51.560;4.642;2023-05-07T04:49:57;13.88;99.99
68251;DHT22;55066;51.560;4.642;2023-05-07T04:52:23;13.81;99.99
68251;DHT22;55066;51.560;4.642;2023-05-07T04:54:48;13.86;95.13
68251;DHT22;55066;51.560;4.642;2023-05-07T04:57:14;14.08;99.99
68251;DHT22;55066;51.560;4.642;2023-05-07T04:59:41;14.13;99.99
68251;DHT22;55066;51.560;4.642;2023-05-07T05:02:07;14.16;99.99
68251;DHT22;55066;51.560;4.642;2023-05-07T05:04:32;14.15;99.99
68251;DHT22;55066;51.560;4.642;2023-05-07T05:06:58;14.13;99.99
68251;DHT22;55066;51.560;4.642;2023-05-07T05:09:25;14.11;99.99
68251;DHT22;55066;51.560;4.642;2023-05-07T05:11:50;14.15;99.99
68251;DHT22;55066;51.560;4.642;2023-05-07T05:14:17;14.12;99.99
68251;DHT22;55066;51.560;4.642;2023-05-07T05:16:42;14.15;99.99
68251;DHT22;55066;51.560;4.642;2023-05-07T05:19:08;14.09;99.99
68251;DHT22;55066;51.560;4.642;2023-05-07T05:21:36;14.12;99.99
68251;DHT22;55066;51.560;4.642;2023-05-07T05:24:06;14.22;99.99
68251;DHT22;55066;51.560;4.642;2023-05-07T05:26:32;14.22;99.99
68251;DHT22;55066;51.560;4.642;2023-05-07T05:28:57;14.13;99.99
68251;DHT22;55066;51.560;4.642;2023-05-07T05:31:25;14.13;99.99
68251;DHT22;55066;51.560;4.642;2023-05-07T05:33:50;14.18;99.99
68251;DHT22;55066;51.560;4.642;2023-05-07T05:36:16;14.15;99.99
68251;DHT22;55066;51.560;4.642;2023-05-07T05:38:43;14.11;99.99
68251;DHT22;55066;51.560;4.642;2023-05-07T05:41:11;14.11;99.99
68251;DHT22;55066;51.560;4.642;2023-05-07T05:43:36;14.12;99.99
68251;DHT22;55066;51.560;4.642;2023-05-07T05:46:02;14.20;99.99
68251;DHT22;55066;51.560;4.642;2023-05-07T05:48:29;14.28;99.99
68251;DHT22;55066;51.560;4.642;2023-05-07T05:50:55;14.44;99.99
68251;DHT22;55066;51.560;4.642;2023-05-07T05:53:20;14.63;99.99
68251;DHT22;55066;51.560;4.642;2023-05-07T05:55:46;14.77;99.99
68251;DHT22;55066;51.560;4.642;2023-05-07T05:58:13;14.91;99.99
68251;DHT22;55066;51.560;4.642;2023-05-07T06:00:46;15.04;99.99
68251;DHT22;55066;51.560;4.642;2023-05-07T06:03:13;15.21;99.99
68251;DHT22;55066;51.560;4.642;2023-05-07T06:05:41;15.08;99.99
68251;DHT22;55066;51.560;4.642;2023-05-07T06:08:07;14.98;99.85
68251;DHT22;55066;51.560;4.642;2023-05-07T06:10:36;15.02;99.99
68251;DHT22;55066;51.560;4.642;2023-05-07T06:13:04;15.15;99.99
68251;DHT22;55066;51.560;4.642;2023-05-07T06:15:30;15.14;99.99
68251;DHT22;55066;51.560;4.642;2023-05-07T06:18:02;15.39;99.99
68251;DHT22;55066;51.560;4.642;2023-05-07T06:20:28;15.60;99.99
68251;DHT22;55066;51.560;4.642;2023-05-07T06:22:57;15.66;99.99
68251;DHT22;55066;51.560;4.642;2023-05-07T06:25:23;15.57;99.99
68251;DHT22;55066;51.560;4.642;2023-05-07T06:27:49;15.43;99.99
68251;DHT22;55066;51.560;4.642;2023-05-07T06:30:14;15.53;99.99
68251;DHT22;55066;51.560;4.642;2023-05-07T06:32:41;15.76;99.99
68251;DHT22;55066;51.560;4.642;2023-05-07T06:35:07;15.86;99.99
68251;DHT22;55066;51.560;4.642;2023-05-07T06:37:36;15.76;99.99
68251;DHT22;55066;51.560;4.642;2023-05-07T06:40:05;15.78;99.99
68251;DHT22;55066;51.560;4.642;2023-05-07T06:42:33;15.91;99.99
68251;DHT22;55066;51.560;4.642;2023-05-07T06:45:15;15.93;99.99
68251;DHT22;55066;51.560;4.642;2023-05-07T06:47:40;16.02;99.99
68251;DHT22;55066;51.560;4.642;2023-05-07T06:50:06;16.17;99.99
68251;DHT22;55066;51.560;4.642;2023-05-07T06:52:32;16.15;99.99
68251;DHT22;55066;51.560;4.642;2023-05-07T06:54:58;16.18;99.99
68251;DHT22;55066;51.560;4.642;2023-05-07T06:57:26;16.14;94.26
68251;DHT22;55066;51.560;4.642;2023-05-07T06:59:52;16.35;99.99
68251;DHT22;55066;51.560;4.642;2023-05-07T07:02:19;16.38;96.71
68251;DHT22;55066;51.560;4.642;2023-05-07T07:04:46;16.33;99.99
68251;DHT22;55066;51.560;4.642;2023-05-07T07:07:14;16.28;99.99
68251;DHT22;55066;51.560;4.642;2023-05-07T07:09:43;16.51;99.99
68251;DHT22;55066;51.560;4.642;2023-05-07T07:12:11;16.56;99.99
68251;DHT22;55066;51.560;4.642;2023-05-07T07:14:39;16.46;99.99
68251;DHT22;55066;51.560;4.642;2023-05-07T07:17:04;16.38;99.99
68251;DHT22;55066;51.560;4.642;2023-05-07T07:19:30;16.60;99.99
68251;DHT22;55066;51.560;4.642;2023-05-07T07:21:57;16.73;99.99
68251;DHT22;55066;51.560;4.642;2023-05-07T07:24:23;16.90;99.99
68251;DHT22;55066;51.560;4.642;2023-05-07T07:26:55;16.95;99.80
68251;DHT22;55066;51.560;4.642;2023-05-07T07:29:22;17.00;99.39
68251;DHT22;55066;51.560;4.642;2023-05-07T07:31:50;17.11;99.56
68251;DHT22;55066;51.560;4.642;2023-05-07T07:34:18;17.10;99.79
68251;DHT22;55066;51.560;4.642;2023-05-07T07:36:45;17.45;98.94
68251;DHT22;55066;51.560;4.642;2023-05-07T07:39:17;18.00;97.71
68251;DHT22;55066;51.560;4.642;2023-05-07T07:41:46;18.05;96.67
68251;DHT22;55066;51.560;4.642;2023-05-07T07:44:12;17.89;97.09
68251;DHT22;55066;51.560;4.642;2023-05-07T07:46:39;18.17;96.35
68251;DHT22;55066;51.560;4.642;2023-05-07T07:49:05;18.35;96.11
68251;DHT22;55066;51.560;4.642;2023-05-07T07:51:31;18.65;95.19
68251;DHT22;55066;51.560;4.642;2023-05-07T07:53:58;18.72;94.33
68251;DHT22;55066;51.560;4.642;2023-05-07T07:56:25;18.56;94.98
68251;DHT22;55066;51.560;4.642;2023-05-07T07:58:52;18.86;94.23
68251;DHT22;55066;51.560;4.642;2023-05-07T08:01:20;18.45;94.75
68251;DHT22;55066;51.560;4.642;2023-05-07T08:03:46;18.80;95.69
68251;DHT22;55066;51.560;4.642;2023-05-07T08:06:12;19.34;93.18
68251;DHT22;55066;51.560;4.642;2023-05-07T08:08:40;19.28;93.55
68251;DHT22;55066;51.560;4.642;2023-05-07T08:11:05;19.42;93.01
68251;DHT22;55066;51.560;4.642;2023-05-07T08:13:34;19.69;91.14
68251;DHT22;55066;51.560;4.642;2023-05-07T08:16:00;19.38;93.13
68251;DHT22;55066;51.560;4.642;2023-05-07T08:18:29;19.51;93.19
68251;DHT22;55066;51.560;4.642;2023-05-07T08:21:00;19.69;92.54
68251;DHT22;55066;51.560;4.642;2023-05-07T08:23:26;19.54;92.49
68251;DHT22;55066;51.560;4.642;2023-05-07T08:25:53;19.87;91.84
68251;DHT22;55066;51.560;4.642;2023-05-07T08:28:19;19.59;91.94
68251;DHT22;55066;51.560;4.642;2023-05-07T08:30:47;20.17;91.30
68251;DHT22;55066;51.560;4.642;2023-05-07T08:33:13;20.16;89.73
68251;DHT22;55066;51.560;4.642;2023-05-07T08:35:39;19.99;91.17
68251;DHT22;55066;51.560;4.642;2023-05-07T08:38:06;20.33;88.56
68251;DHT22;55066;51.560;4.642;2023-05-07T08:40:36;20.59;87.78
68251;DHT22;55066;51.560;4.642;2023-05-07T08:43:05;20.43;90.07
68251;DHT22;55066;51.560;4.642;2023-05-07T08:45:33;20.68;89.36
68251;DHT22;55066;51.560;4.642;2023-05-07T08:48:00;20.23;89.20
68251;DHT22;55066;51.560;4.642;2023-05-07T08:50:35;20.75;89.20
68251;DHT22;55066;51.560;4.642;2023-05-07T08:53:02;21.19;86.89
68251;DHT22;55066;51.560;4.642;2023-05-07T08:55:30;21.47;86.61
68251;DHT22;55066;51.560;4.642;2023-05-07T08:57:59;21.11;87.24
68251;DHT22;55066;51.560;4.642;2023-05-07T09:00:25;21.19;86.82
68251;DHT22;55066;51.560;4.642;2023-05-07T09:02:54;21.50;85.48
68251;DHT22;55066;51.560;4.642;2023-05-07T09:05:23;20.98;87.54
68251;DHT22;55066;51.560;4.642;2023-05-07T09:07:50;21.16;86.82
68251;DHT22;55066;51.560;4.642;2023-05-07T09:10:16;21.37;87.61
68251;DHT22;55066;51.560;4.642;2023-05-07T09:12:46;20.91;89.06
68251;DHT22;55066;51.560;4.642;2023-05-07T09:15:12;21.53;86.24
68251;DHT22;55066;51.560;4.642;2023-05-07T09:17:38;21.74;86.22
68251;DHT22;55066;51.560;4.642;2023-05-07T09:20:06;21.78;85.89
68251;DHT22;55066;51.560;4.642;2023-05-07T09:22:32;22.22;83.53
68251;DHT22;55066;51.560;4.642;2023-05-07T09:25:02;22.43;81.72
68251;DHT22;55066;51.560;4.642;2023-05-07T09:27:31;21.95;84.91
68251;DHT22;55066;51.560;4.642;2023-05-07T09:29:57;22.03;84.69
68251;DHT22;55066;51.560;4.642;2023-05-07T09:32:24;21.58;85.41
68251;DHT22;55066;51.560;4.642;2023-05-07T09:34:51;21.24;85.74
68251;DHT22;55066;51.560;4.642;2023-05-07T09:37:21;21.33;85.16
68251;DHT22;55066;51.560;4.642;2023-05-07T09:39:48;21.16;86.57
68251;DHT22;55066;51.560;4.642;2023-05-07T09:42:24;21.61;84.97
68251;DHT22;55066;51.560;4.642;2023-05-07T09:44:55;21.71;86.24
68251;DHT22;55066;51.560;4.642;2023-05-07T09:47:25;21.96;85.97
68251;DHT22;55066;51.560;4.642;2023-05-07T09:50:01;22.19;83.09
68251;DHT22;55066;51.560;4.642;2023-05-07T09:52:31;22.17;83.44
68251;DHT22;55066;51.560;4.642;2023-05-07T09:55:02;22.44;84.70
68251;DHT22;55066;51.560;4.642;2023-05-07T09:57:32;22.68;81.64
68251;DHT22;55066;51.560;4.642;2023-05-07T10:00:03;22.60;82.19
68251;DHT22;55066;51.560;4.642;2023-05-07T10:02:47;22.77;82.67
68251;DHT22;55066;51.560;4.642;2023-05-07T10:05:15;22.84;82.07
68251;DHT22;55066;51.560;4.642;2023-05-07T10:07:43;22.40;83.20
68251;DHT22;55066;51.560;4.642;2023-05-07T10:10:11;22.47;83.12
68251;DHT22;55066;51.560;4.642;2023-05-07T10:12:41;22.47;82.40
68251;DHT22;55066;51.560;4.642;2023-05-07T10:15:13;22.53;82.47
68251;DHT22;55066;51.560;4.642;2023-05-07T10:17:42;22.47;82.79
68251;DHT22;55066;51.560;4.642;2023-05-07T10:20:12;22.40;83.36
68251;DHT22;55066;51.560;4.642;2023-05-07T10:22:43;22.63;82.43
68251;DHT22;55066;51.560;4.642;2023-05-07T10:25:17;22.20;83.20
68251;DHT22;55066;51.560;4.642;2023-05-07T10:27:45;23.04;84.25
68251;DHT22;55066;51.560;4.642;2023-05-07T10:32:50;22.67;83.09
68251;DHT22;55066;51.560;4.642;2023-05-07T10:35:26;22.96;82.25
68251;DHT22;55066;51.560;4.642;2023-05-07T10:37:52;23.27;82.58
68251;DHT22;55066;51.560;4.642;2023-05-07T10:40:21;23.78;81.92
68251;DHT22;55066;51.560;4.642;2023-05-07T10:43:00;23.39;82.57
68251;DHT22;55066;51.560;4.642;2023-05-07T10:45:30;23.61;83.73
68251;DHT22;55066;51.560;4.642;2023-05-07T10:48:14;22.88;83.47
68251;DHT22;55066;51.560;4.642;2023-05-07T10:50:43;23.25;82.79
68251;DHT22;55066;51.560;4.642;2023-05-07T10:53:27;23.36;82.83
68251;DHT22;55066;51.560;4.642;2023-05-07T10:58:46;22.02;87.09
68251;DHT22;55066;51.560;4.642;2023-05-07T11:01:49;22.23;85.82
68251;DHT22;55066;51.560;4.642;2023-05-07T11:04:22;22.19;84.61
68251;DHT22;55066;51.560;4.642;2023-05-07T11:10:01;22.20;84.91
68251;DHT22;55066;51.560;4.642;2023-05-07T11:15:15;22.30;81.82
68251;DHT22;55066;51.560;4.642;2023-05-07T11:17:59;22.54;81.40
68251;DHT22;55066;51.560;4.642;2023-05-07T11:26:10;22.03;83.66
68251;DHT22;55066;51.560;4.642;2023-05-07T11:28:42;22.23;83.95
68251;DHT22;55066;51.560;4.642;2023-05-07T11:31:09;22.67;83.36
68251;DHT22;55066;51.560;4.642;2023-05-07T11:33:37;22.78;83.96
68251;DHT22;55066;51.560;4.642;2023-05-07T11:36:05;22.75;82.66
68251;DHT22;55066;51.560;4.642;2023-05-07T11:38:37;22.63;84.06
68251;DHT22;55066;51.560;4.642;2023-05-07T11:41:04;22.65;83.75
68251;DHT22;55066;51.560;4.642;2023-05-07T11:43:32;22.90;83.25
68251;DHT22;55066;51.560;4.642;2023-05-07T11:46:09;22.67;83.88
68251;DHT22;55066;51.560;4.642;2023-05-07T11:48:35;22.95;83.62
68251;DHT22;55066;51.560;4.642;2023-05-07T11:51:03;23.40;82.90
68251;DHT22;55066;51.560;4.642;2023-05-07T11:53:39;23.71;82.35
68251;DHT22;55066;51.560;4.642;2023-05-07T11:56:15;24.00;81.11
68251;DHT22;55066;51.560;4.642;2023-05-07T11:58:42;22.60;83.04
68251;DHT22;55066;51.560;4.642;2023-05-07T12:01:09;23.11;82.62
68251;DHT22;55066;51.560;4.642;2023-05-07T12:03:44;23.64;82.29
68251;DHT22;55066;51.560;4.642;2023-05-07T12:06:18;23.66;81.52
68251;DHT22;55066;51.560;4.642;2023-05-07T12:08:44;23.56;81.18
68251;DHT22;55066;51.560;4.642;2023-05-07T12:11:18;23.78;81.88
68251;DHT22;55066;51.560;4.642;2023-05-07T12:13:47;23.93;82.08
68251;DHT22;55066;51.560;4.642;2023-05-07T12:16:12;24.14;81.05
68251;DHT22;55066;51.560;4.642;2023-05-07T12:18:38;23.94;80.52
68251;DHT22;55066;51.560;4.642;2023-05-07T12:21:05;23.75;80.05
68251;DHT22;55066;51.560;4.642;2023-05-07T12:23:32;23.91;79.21
68251;DHT22;55066;51.560;4.642;2023-05-07T12:25:59;24.48;80.46
68251;DHT22;55066;51.560;4.642;2023-05-07T12:28:24;24.43;77.15
68251;DHT22;55066;51.560;4.642;2023-05-07T12:30:51;24.48;77.24
68251;DHT22;55066;51.560;4.642;2023-05-07T12:33:27;24.04;77.66
68251;DHT22;55066;51.560;4.642;2023-05-07T12:35:55;24.80;76.82
68251;DHT22;55066;51.560;4.642;2023-05-07T12:38:20;24.77;77.86
68251;DHT22;55066;51.560;4.642;2023-05-07T12:40:48;25.31;77.87
68251;DHT22;55066;51.560;4.642;2023-05-07T12:45:42;24.81;76.78
68251;DHT22;55066;51.560;4.642;2023-05-07T12:48:10;24.62;77.32
68251;DHT22;55066;51.560;4.642;2023-05-07T12:50:36;24.59;75.02
68251;DHT22;55066;51.560;4.642;2023-05-07T12:53:06;25.56;76.28
68251;DHT22;55066;51.560;4.642;2023-05-07T12:55:45;25.73;74.17
68251;DHT22;55066;51.560;4.642;2023-05-07T12:58:29;24.53;74.74
68251;DHT22;55066;51.560;4.642;2023-05-07T13:00:57;24.57;78.14
68251;DHT22;55066;51.560;4.642;2023-05-07T13:03:33;24.88;80.00
68251;DHT22;55066;51.560;4.642;2023-05-07T13:06:01;25.00;75.69
68251;DHT22;55066;51.560;4.642;2023-05-07T13:08:31;25.48;77.69
68251;DHT22;55066;51.560;4.642;2023-05-07T13:11:00;24.33;78.07
68251;DHT22;55066;51.560;4.642;2023-05-07T13:13:33;24.76;77.88
68251;DHT22;55066;51.560;4.642;2023-05-07T13:16:00;25.77;79.30
68251;DHT22;55066;51.560;4.642;2023-05-07T13:18:26;25.98;78.13
68251;DHT22;55066;51.560;4.642;2023-05-07T13:20:52;26.17;77.23
68251;DHT22;55066;51.560;4.642;2023-05-07T13:23:18;26.56;72.87
68251;DHT22;55066;51.560;4.642;2023-05-07T13:25:43;25.82;75.30
68251;DHT22;55066;51.560;4.642;2023-05-07T13:28:09;24.95;76.67
68251;DHT22;55066;51.560;4.642;2023-05-07T13:30:34;24.56;73.63
68251;DHT22;55066;51.560;4.642;2023-05-07T13:33:00;24.49;78.13
68251;DHT22;55066;51.560;4.642;2023-05-07T13:35:26;23.90;74.80
68251;DHT22;55066;51.560;4.642;2023-05-07T13:37:51;23.42;78.98
68251;DHT22;55066;51.560;4.642;2023-05-07T13:40:18;24.24;84.75
68251;DHT22;55066;51.560;4.642;2023-05-07T13:42:45;24.79;77.91
68251;DHT22;55066;51.560;4.642;2023-05-07T13:45:10;24.56;82.57
68251;DHT22;55066;51.560;4.642;2023-05-07T13:47:42;24.64;83.34
68251;DHT22;55066;51.560;4.642;2023-05-07T13:50:09;24.00;75.83
68251;DHT22;55066;51.560;4.642;2023-05-07T13:52:34;24.37;82.74
68251;DHT22;55066;51.560;4.642;2023-05-07T13:55:00;24.30;83.07
68251;DHT22;55066;51.560;4.642;2023-05-07T13:57:25;23.64;78.63
68251;DHT22;55066;51.560;4.642;2023-05-07T13:59:52;23.42;81.89
68251;DHT22;55066;51.560;4.642;2023-05-07T14:02:17;22.91;80.11
68251;DHT22;55066;51.560;4.642;2023-05-07T14:04:43;22.65;77.73
68251;DHT22;55066;51.560;4.642;2023-05-07T14:07:08;23.71;81.18
68251;DHT22;55066;51.560;4.642;2023-05-07T14:09:35;24.01;79.86
68251;DHT22;55066;51.560;4.642;2023-05-07T14:12:00;23.82;78.01
68251;DHT22;55066;51.560;4.642;2023-05-07T14:14:26;23.27;79.95
68251;DHT22;55066;51.560;4.642;2023-05-07T14:16:54;23.27;78.77
68251;DHT22;55066;51.560;4.642;2023-05-07T14:19:21;22.87;82.76
68251;DHT22;55066;51.560;4.642;2023-05-07T14:21:48;23.26;85.33
68251;DHT22;55066;51.560;4.642;2023-05-07T14:24:13;23.09;80.78
68251;DHT22;55066;51.560;4.642;2023-05-07T14:26:39;23.12;82.20
68251;DHT22;55066;51.560;4.642;2023-05-07T14:29:04;22.99;82.18
68251;DHT22;55066;51.560;4.642;2023-05-07T14:31:29;22.44;80.47
68251;DHT22;55066;51.560;4.642;2023-05-07T14:33:58;22.81;78.57
68251;DHT22;55066;51.560;4.642;2023-05-07T14:36:24;23.16;79.84
68251;DHT22;55066;51.560;4.642;2023-05-07T14:38:52;23.80;80.05
68251;DHT22;55066;51.560;4.642;2023-05-07T14:41:19;24.08;76.14
68251;DHT22;55066;51.560;4.642;2023-05-07T14:43:46;23.91;76.36
68251;DHT22;55066;51.560;4.642;2023-05-07T14:46:18;24.18;79.22
68251;DHT22;55066;51.560;4.642;2023-05-07T14:48:44;24.15;76.50
68251;DHT22;55066;51.560;4.642;2023-05-07T14:51:13;24.24;76.36
68251;DHT22;55066;51.560;4.642;2023-05-07T14:53:44;23.42;75.66
68251;DHT22;55066;51.560;4.642;2023-05-07T14:56:09;23.78;81.94
68251;DHT22;55066;51.560;4.642;2023-05-07T14:58:35;24.15;79.37
68251;DHT22;55066;51.560;4.642;2023-05-07T15:01:01;23.98;75.94
68251;DHT22;55066;51.560;4.642;2023-05-07T15:03:28;23.04;79.13
68251;DHT22;55066;51.560;4.642;2023-05-07T15:05:53;23.23;79.22
68251;DHT22;55066;51.560;4.642;2023-05-07T15:08:19;23.01;79.84
68251;DHT22;55066;51.560;4.642;2023-05-07T15:10:44;23.71;76.79
68251;DHT22;55066;51.560;4.642;2023-05-07T15:13:15;23.53;76.99
68251;DHT22;55066;51.560;4.642;2023-05-07T15:15:42;23.09;77.92
68251;DHT22;55066;51.560;4.642;2023-05-07T15:18:08;22.75;79.02
68251;DHT22;55066;51.560;4.642;2023-05-07T15:20:36;22.75;77.97
68251;DHT22;55066;51.560;4.642;2023-05-07T15:23:04;23.12;79.06
68251;DHT22;55066;51.560;4.642;2023-05-07T15:25:35;23.12;78.43
68251;DHT22;55066;51.560;4.642;2023-05-07T15:28:01;23.91;78.15
68251;DHT22;55066;51.560;4.642;2023-05-07T15:30:26;23.29;76.36
68251;DHT22;55066;51.560;4.642;2023-05-07T15:32:52;23.06;76.95
68251;DHT22;55066;51.560;4.642;2023-05-07T15:35:18;23.59;77.68
68251;DHT22;55066;51.560;4.642;2023-05-07T15:37:47;23.73;77.10
68251;DHT22;55066;51.560;4.642;2023-05-07T15:40:19;24.72;76.93
68251;DHT22;55066;51.560;4.642;2023-05-07T15:42:46;25.15;72.72
68251;DHT22;55066;51.560;4.642;2023-05-07T15:45:11;24.43;73.96
68251;DHT22;55066;51.560;4.642;2023-05-07T15:47:37;24.73;73.80
68251;DHT22;55066;51.560;4.642;2023-05-07T15:50:03;25.45;74.68
68251;DHT22;55066;51.560;4.642;2023-05-07T15:52:28;25.27;73.57